Time;durP1;ratioP1;P1;durP2;ratioP2;P2;SDS_P1;SDS_P2;PMS_P1;PMS_P2;Temp;Humidity;BMP_temperature;BMP_pressure;BME280_temperature;BME280_humidity;BME280_pressure;Samples;Min_cycle;Max_cycle;Signal;HPM_P1;HPM_P2
2023/03/31 00:00:19;;;;;;;;;;;9.60;99.90;;;;;;5050637;28;19920;-65
2023/03/31 00:02:44;;;;;;;;;;;9.60;99.90;;;;;;5048692;28;19920;-64
2023/03/31 00:05:10;;;;;;;;;;;9.70;99.90;;;;;;5047616;28;20537;-64
2023/03/31 00:07:39;;;;;;;;;;;9.60;99.90;;;;;;5049367;28;20440;-65
2023/03/31 00:10:05;;;;;;;;;;;9.40;99.90;;;;;;5048922;28;20161;-65
2023/03/31 00:12:31;;;;;;;;;;;9.40;99.90;;;;;;5048476;28;20334;-64
2023/03/31 00:14:56;;;;;;;;;;;9.60;99.90;;;;;;5047951;28;20344;-65
2023/03/31 00:17:22;;;;;;;;;;;9.50;99.90;;;;;;5049799;28;19916;-64
2023/03/31 00:19:48;;;;;;;;;;;9.50;99.90;;;;;;5048960;28;20015;-65
2023/03/31 00:22:17;;;;;;;;;;;9.40;99.90;;;;;;5048383;28;19924;-64
2023/03/31 00:24:43;;;;;;;;;;;9.50;99.90;;;;;;5048738;28;20200;-65
2023/03/31 00:27:10;;;;;;;;;;;9.20;99.90;;;;;;5050279;28;20353;-64
2023/03/31 00:29:40;;;;;;;;;;;9.30;99.90;;;;;;5048185;28;19916;-64
2023/03/31 00:32:05;;;;;;;;;;;9.10;99.90;;;;;;5048506;28;20036;-64
2023/03/31 00:34:31;;;;;;;;;;;9.10;99.90;;;;;;5047572;28;19921;-65
2023/03/31 00:37:01;;;;;;;;;;;9.20;99.90;;;;;;5048654;28;20378;-66
2023/03/31 00:39:30;;;;;;;;;;;9.30;99.90;;;;;;5049416;28;19932;-66
2023/03/31 00:41:56;;;;;;;;;;;9.10;99.90;;;;;;5031171;28;19927;-65
2023/03/31 00:44:25;;;;;;;;;;;9.30;99.90;;;;;;5047034;28;19920;-65
2023/03/31 00:46:51;;;;;;;;;;;9.20;1.00;;;;;;5050925;28;19928;-65
2023/03/31 00:49:39;;;;;;;;;;;9.00;99.90;;;;;;5045906;28;19925;-65
2023/03/31 00:52:07;;;;;;;;;;;9.20;1.00;;;;;;5040617;28;19947;-64
2023/03/31 00:54:35;;;;;;;;;;;9.00;1.00;;;;;;5048368;28;20374;-65
2023/03/31 00:57:02;;;;;;;;;;;9.00;1.00;;;;;;5047546;28;19932;-66
2023/03/31 00:59:29;;;;;;;;;;;8.80;1.00;;;;;;5049061;28;19935;-65
2023/03/31 01:01:58;;;;;;;;;;;8.70;1.00;;;;;;5048271;28;20164;-64
2023/03/31 01:04:24;;;;;;;;;;;8.90;1.00;;;;;;5031314;28;19925;-65
2023/03/31 01:06:59;;;;;;;;;;;8.70;1.00;;;;;;5048871;28;20184;-65
2023/03/31 01:09:29;;;;;;;;;;;8.60;1.00;;;;;;5047344;28;19927;-66
2023/03/31 01:11:55;;;;;;;;;;;8.90;1.00;;;;;;5047897;28;19931;-65
2023/03/31 01:14:21;;;;;;;;;;;8.80;1.00;;;;;;5047168;28;20170;-65
2023/03/31 01:16:46;;;;;;;;;;;8.60;1.00;;;;;;5028994;28;20012;-64
2023/03/31 01:19:18;;;;;;;;;;;8.90;1.00;;;;;;5046973;28;20609;-64
2023/03/31 01:22:10;;;;;;;;;;;8.60;30.60;;;;;;5046624;28;20382;-65
2023/03/31 01:25:00;;;;;;;;;;;8.50;35.90;;;;;;5040967;28;19923;-65
2023/03/31 01:27:47;;;;;;;;;;;8.40;45.30;;;;;;5047456;28;20220;-65
2023/03/31 01:30:36;;;;;;;;;;;8.40;99.90;;;;;;5029025;28;19916;-65
2023/03/31 01:33:07;;;;;;;;;;;8.60;99.90;;;;;;5047266;28;19967;-66
2023/03/31 01:35:57;;;;;;;;;;;8.50;99.90;;;;;;5048832;28;20334;-66
2023/03/31 01:38:39;;;;;;;;;;;8.70;99.90;;;;;;5049184;28;20015;-66
2023/03/31 01:41:23;;;;;;;;;;;8.50;99.90;;;;;;5046280;28;19926;-64
2023/03/31 01:43:49;;;;;;;;;;;8.60;99.90;;;;;;5030897;28;20439;-64
2023/03/31 01:46:23;;;;;;;;;;;8.40;99.90;;;;;;5048138;28;19920;-67
2023/03/31 01:49:04;;;;;;;;;;;8.40;99.90;;;;;;5030308;28;19920;-67
2023/03/31 01:51:30;;;;;;;;;;;8.60;99.90;;;;;;5046600;28;19930;-66
2023/03/31 01:54:07;;;;;;;;;;;8.60;99.90;;;;;;5053058;28;19920;-66
2023/03/31 01:56:36;;;;;;;;;;;8.40;99.90;;;;;;5051521;28;20352;-66
2023/03/31 01:59:13;;;;;;;;;;;8.80;99.90;;;;;;5051292;28;19924;-66
2023/03/31 02:01:48;;;;;;;;;;;8.40;99.90;;;;;;5054080;28;19916;-65
2023/03/31 02:04:20;;;;;;;;;;;8.80;99.90;;;;;;5057196;28;19927;-65
2023/03/31 02:06:51;;;;;;;;;;;8.50;99.90;;;;;;5058151;28;19920;-66
2023/03/31 02:09:22;;;;;;;;;;;8.80;99.90;;;;;;5040446;28;19924;-63
2023/03/31 02:11:48;;;;;;;;;;;8.60;99.90;;;;;;5055040;28;19924;-66
2023/03/31 02:14:18;;;;;;;;;;;8.60;99.90;;;;;;5058414;28;19931;-65
2023/03/31 02:16:46;;;;;;;;;;;8.70;99.90;;;;;;5056655;28;19987;-64
2023/03/31 02:19:17;;;;;;;;;;;8.80;99.90;;;;;;5056951;28;19920;-63
2023/03/31 02:21:45;;;;;;;;;;;8.70;99.90;;;;;;5058726;28;19927;-64
2023/03/31 02:24:13;;;;;;;;;;;8.90;99.90;;;;;;5059189;28;20319;-63
2023/03/31 02:26:49;;;;;;;;;;;8.50;99.90;;;;;;5038285;28;20483;-64
2023/03/31 02:29:15;;;;;;;;;;;8.50;99.90;;;;;;5057321;28;19958;-64
2023/03/31 02:31:41;;;;;;;;;;;8.70;99.90;;;;;;5055619;28;20132;-66
2023/03/31 02:34:07;;;;;;;;;;;8.60;99.90;;;;;;5052062;28;19920;-65
2023/03/31 02:36:33;;;;;;;;;;;8.80;99.90;;;;;;5050601;28;19920;-65
2023/03/31 02:39:05;;;;;;;;;;;8.60;99.90;;;;;;5050836;28;19924;-65
2023/03/31 02:41:31;;;;;;;;;;;8.90;99.90;;;;;;5031897;28;19975;-65
2023/03/31 02:43:56;;;;;;;;;;;8.60;99.90;;;;;;5051632;28;20110;-65
2023/03/31 02:46:22;;;;;;;;;;;8.70;99.90;;;;;;5048956;28;19925;-66
2023/03/31 02:48:51;;;;;;;;;;;8.90;99.90;;;;;;5052148;28;20258;-65
2023/03/31 02:51:35;;;;;;;;;;;8.80;99.90;;;;;;5050229;28;20035;-65
2023/03/31 02:54:06;;;;;;;;;;;8.70;99.90;;;;;;5033613;28;19926;-63
2023/03/31 02:56:55;;;;;;;;;;;8.70;99.90;;;;;;5033370;28;19920;-65
2023/03/31 02:59:47;;;;;;;;;;;8.70;99.90;;;;;;5048744;28;19920;-64
2023/03/31 03:02:45;;;;;;;;;;;8.70;99.90;;;;;;5042203;28;20382;-65
2023/03/31 03:05:19;;;;;;;;;;;8.70;99.90;;;;;;5010844;28;19999;-64
2023/03/31 03:07:54;;;;;;;;;;;8.70;99.90;;;;;;5049416;28;19920;-65
2023/03/31 03:10:43;;;;;;;;;;;9.00;99.90;;;;;;5050390;28;19920;-64
2023/03/31 03:13:15;;;;;;;;;;;8.80;99.90;;;;;;5040989;28;19921;-63
2023/03/31 03:15:45;;;;;;;;;;;8.70;99.90;;;;;;5039085;28;19916;-65
2023/03/31 03:18:10;;;;;;;;;;;8.70;99.90;;;;;;5057243;28;19931;-64
2023/03/31 03:20:37;;;;;;;;;;;9.10;99.90;;;;;;5055762;28;20031;-65
2023/03/31 03:23:03;;;;;;;;;;;8.90;97.50;;;;;;5055732;28;20366;-64
2023/03/31 03:25:29;;;;;;;;;;;9.00;92.90;;;;;;5055502;28;19923;-65
2023/03/31 03:27:55;;;;;;;;;;;9.00;77.40;;;;;;5054614;28;19924;-64
2023/03/31 03:30:21;;;;;;;;;;;8.80;70.00;;;;;;5039749;28;19970;-66
2023/03/31 03:32:46;;;;;;;;;;;8.70;63.00;;;;;;5033242;28;19990;-64
2023/03/31 03:35:12;;;;;;;;;;;8.80;60.60;;;;;;5033079;28;20302;-65
2023/03/31 03:37:38;;;;;;;;;;;9.10;64.80;;;;;;5049949;28;19928;-65
2023/03/31 03:40:07;;;;;;;;;;;9.10;55.80;;;;;;5049658;28;20426;-65
2023/03/31 03:42:34;;;;;;;;;;;9.00;57.80;;;;;;5048458;28;20154;-65
2023/03/31 03:45:00;;;;;;;;;;;9.20;60.00;;;;;;5049561;28;19955;-65
2023/03/31 03:47:26;;;;;;;;;;;9.00;84.00;;;;;;5050698;28;19932;-66
2023/03/31 03:49:51;;;;;;;;;;;8.90;79.30;;;;;;5052838;28;19931;-64
2023/03/31 03:52:17;;;;;;;;;;;9.10;83.00;;;;;;5056094;28;20334;-64
2023/03/31 03:54:42;;;;;;;;;;;9.00;76.50;;;;;;5055378;28;19977;-65
2023/03/31 03:57:08;;;;;;;;;;;8.90;61.90;;;;;;5038185;28;20329;-65
2023/03/31 03:59:34;;;;;;;;;;;8.90;82.70;;;;;;5056919;28;20281;-65
2023/03/31 04:01:59;;;;;;;;;;;9.00;94.30;;;;;;5037884;28;19925;-65
2023/03/31 04:04:25;;;;;;;;;;;9.10;99.90;;;;;;5052928;28;19927;-65
2023/03/31 04:06:50;;;;;;;;;;;8.80;91.40;;;;;;5055754;28;19973;-66
2023/03/31 04:09:16;;;;;;;;;;;9.00;99.90;;;;;;5054803;28;19924;-64
2023/03/31 04:11:42;;;;;;;;;;;8.80;99.90;;;;;;5038923;28;20022;-65
2023/03/31 04:14:07;;;;;;;;;;;9.10;99.90;;;;;;5055446;28;19962;-65
2023/03/31 04:16:33;;;;;;;;;;;8.80;99.90;;;;;;5053514;28;19979;-64
2023/03/31 04:19:02;;;;;;;;;;;9.00;99.90;;;;;;5052836;28;19931;-64
2023/03/31 04:21:29;;;;;;;;;;;8.80;99.90;;;;;;5055979;28;19924;-65
2023/03/31 04:24:00;;;;;;;;;;;8.70;99.90;;;;;;5036229;28;21064;-64
2023/03/31 04:26:30;;;;;;;;;;;8.80;99.90;;;;;;5056133;28;20402;-64
2023/03/31 04:29:01;;;;;;;;;;;8.70;99.90;;;;;;5053731;28;20344;-65
2023/03/31 04:31:29;;;;;;;;;;;9.10;99.90;;;;;;5035940;28;19950;-65
2023/03/31 04:33:59;;;;;;;;;;;9.00;99.90;;;;;;5052202;28;19970;-63
2023/03/31 04:36:30;;;;;;;;;;;8.90;99.90;;;;;;5051645;28;20009;-63
2023/03/31 04:38:55;;;;;;;;;;;9.20;99.90;;;;;;5052831;28;19997;-65
2023/03/31 04:41:22;;;;;;;;;;;8.90;99.90;;;;;;5053739;28;20372;-64
2023/03/31 04:43:47;;;;;;;;;;;9.30;99.90;;;;;;5054395;28;19975;-64
2023/03/31 04:46:13;;;;;;;;;;;9.00;99.90;;;;;;5052131;28;19920;-65
2023/03/31 04:48:39;;;;;;;;;;;9.30;99.90;;;;;;5053777;28;20371;-64
2023/03/31 04:51:04;;;;;;;;;;;9.10;99.90;;;;;;5055885;28;20650;-64
2023/03/31 04:53:30;;;;;;;;;;;9.30;99.90;;;;;;5055818;28;19920;-64
2023/03/31 04:55:56;;;;;;;;;;;9.20;99.90;;;;;;5056036;28;19924;-64
2023/03/31 04:58:21;;;;;;;;;;;9.10;99.90;;;;;;5053509;28;20007;-62
2023/03/31 05:00:47;;;;;;;;;;;9.30;99.90;;;;;;5054280;28;19974;-64
2023/03/31 05:03:12;;;;;;;;;;;9.20;99.90;;;;;;5037436;28;20798;-65
2023/03/31 05:05:38;;;;;;;;;;;9.50;99.90;;;;;;5053475;28;20314;-64
2023/03/31 05:08:04;;;;;;;;;;;9.50;99.90;;;;;;5038999;28;19931;-63
2023/03/31 05:10:29;;;;;;;;;;;9.10;99.90;;;;;;5051846;28;19927;-65
2023/03/31 05:12:55;;;;;;;;;;;9.20;99.90;;;;;;5047015;28;20204;-64
2023/03/31 05:15:20;;;;;;;;;;;9.40;99.90;;;;;;5047435;28;20474;-65
2023/03/31 05:17:46;;;;;;;;;;;9.30;99.90;;;;;;5030266;28;20442;-65
2023/03/31 05:20:12;;;;;;;;;;;9.40;99.90;;;;;;5031007;28;19982;-65
2023/03/31 05:22:39;;;;;;;;;;;9.30;99.90;;;;;;5050406;28;19932;-65
2023/03/31 05:25:06;;;;;;;;;;;9.20;99.90;;;;;;5048046;28;19924;-65
2023/03/31 05:27:32;;;;;;;;;;;9.40;99.90;;;;;;5049661;28;19974;-64
2023/03/31 05:29:57;;;;;;;;;;;9.30;99.90;;;;;;5046481;28;20313;-65
2023/03/31 05:32:23;;;;;;;;;;;9.10;99.90;;;;;;5048020;28;19921;-65
2023/03/31 05:34:51;;;;;;;;;;;9.40;99.90;;;;;;5047226;28;19947;-65
2023/03/31 05:37:17;;;;;;;;;;;9.30;99.90;;;;;;5046175;28;19923;-65
2023/03/31 05:39:43;;;;;;;;;;;9.20;99.90;;;;;;5030503;28;20011;-64
2023/03/31 05:42:08;;;;;;;;;;;9.30;99.90;;;;;;5047567;28;19946;-66
2023/03/31 05:44:34;;;;;;;;;;;9.50;99.90;;;;;;5029406;28;19920;-64
2023/03/31 05:47:00;;;;;;;;;;;9.20;99.90;;;;;;5049344;28;19917;-65
2023/03/31 05:49:25;;;;;;;;;;;9.40;99.90;;;;;;5031955;28;19920;-65
2023/03/31 05:51:52;;;;;;;;;;;9.30;99.90;;;;;;5047820;28;19924;-65
2023/03/31 05:54:18;;;;;;;;;;;9.50;99.90;;;;;;5047253;28;20003;-64
2023/03/31 05:56:45;;;;;;;;;;;9.40;99.90;;;;;;5029995;28;20363;-65
2023/03/31 05:59:10;;;;;;;;;;;9.60;99.90;;;;;;5029815;28;19927;-64
2023/03/31 06:01:36;;;;;;;;;;;9.60;99.90;;;;;;5048040;28;19946;-66
2023/03/31 06:04:02;;;;;;;;;;;9.40;99.90;;;;;;5030803;28;20420;-65
2023/03/31 06:06:27;;;;;;;;;;;9.50;99.90;;;;;;5047246;28;19947;-66
2023/03/31 06:08:53;;;;;;;;;;;9.20;99.90;;;;;;5032237;28;20015;-66
2023/03/31 06:11:20;;;;;;;;;;;9.50;99.90;;;;;;5013762;28;20494;-67
2023/03/31 06:13:46;;;;;;;;;;;9.30;99.90;;;;;;5047127;28;19924;-66
2023/03/31 06:16:12;;;;;;;;;;;9.10;99.90;;;;;;5031459;28;19920;-66
2023/03/31 06:18:38;;;;;;;;;;;9.60;99.90;;;;;;5031362;28;19931;-66
2023/03/31 06:21:04;;;;;;;;;;;9.50;99.90;;;;;;5045474;28;19924;-66
2023/03/31 06:23:30;;;;;;;;;;;9.70;99.90;;;;;;5047697;28;19927;-67
2023/03/31 06:26:05;;;;;;;;;;;9.30;99.90;;;;;;5046864;28;20011;-67
2023/03/31 06:28:30;;;;;;;;;;;9.20;99.90;;;;;;5047190;28;20538;-68
2023/03/31 06:31:03;;;;;;;;;;;9.70;99.90;;;;;;5030927;28;19924;-68
2023/03/31 06:33:29;;;;;;;;;;;9.50;99.90;;;;;;5047639;28;19970;-68
2023/03/31 06:35:55;;;;;;;;;;;9.80;99.90;;;;;;5048711;28;20019;-68
2023/03/31 06:38:21;;;;;;;;;;;9.60;99.90;;;;;;5051880;28;20374;-68
2023/03/31 06:40:46;;;;;;;;;;;9.30;99.90;;;;;;5035643;28;19978;-69
2023/03/31 06:43:12;;;;;;;;;;;9.30;99.90;;;;;;5035587;28;19943;-69
2023/03/31 06:45:37;;;;;;;;;;;9.70;99.90;;;;;;5051792;28;20388;-70
2023/03/31 06:48:03;;;;;;;;;;;9.30;99.90;;;;;;5049974;28;19921;-70
2023/03/31 06:50:29;;;;;;;;;;;9.70;99.90;;;;;;5036078;28;19946;-69
2023/03/31 06:52:54;;;;;;;;;;;9.40;99.90;;;;;;5051161;28;20026;-70
2023/03/31 06:55:20;;;;;;;;;;;9.80;99.90;;;;;;5050937;28;19924;-69
2023/03/31 06:57:45;;;;;;;;;;;9.40;99.90;;;;;;5052694;28;19931;-69
2023/03/31 07:00:12;;;;;;;;;;;9.90;99.90;;;;;;5051722;28;20255;-70
2023/03/31 07:02:37;;;;;;;;;;;9.80;99.90;;;;;;5052093;28;19943;-69
2023/03/31 07:05:03;;;;;;;;;;;9.90;99.90;;;;;;5048960;28;20486;-70
2023/03/31 07:07:32;;;;;;;;;;;9.50;99.90;;;;;;5049275;28;19920;-69
2023/03/31 07:09:58;;;;;;;;;;;9.50;99.90;;;;;;5049393;28;19971;-69
2023/03/31 07:12:23;;;;;;;;;;;9.40;99.90;;;;;;5048514;28;20098;-68
2023/03/31 07:14:49;;;;;;;;;;;9.40;99.90;;;;;;5048403;28;20279;-69
2023/03/31 07:17:15;;;;;;;;;;;9.60;99.90;;;;;;5048329;28;19921;-69
2023/03/31 07:19:41;;;;;;;;;;;9.80;99.90;;;;;;5048781;28;19932;-67
2023/03/31 07:22:07;;;;;;;;;;;9.90;99.90;;;;;;5031944;28;20400;-70
2023/03/31 07:24:32;;;;;;;;;;;9.80;99.90;;;;;;5047640;28;19920;-70
2023/03/31 07:26:58;;;;;;;;;;;10.00;99.90;;;;;;5048046;28;19921;-70
2023/03/31 07:29:24;;;;;;;;;;;10.00;99.90;;;;;;5047306;28;19932;-70
2023/03/31 07:31:52;;;;;;;;;;;9.80;99.90;;;;;;5022270;28;19931;-69
2023/03/31 07:34:17;;;;;;;;;;;9.60;99.90;;;;;;5048184;28;19973;-70
2023/03/31 07:36:43;;;;;;;;;;;9.70;99.90;;;;;;5031527;28;19921;-69
2023/03/31 07:39:09;;;;;;;;;;;9.70;99.90;;;;;;5051305;28;20017;-70
2023/03/31 07:41:34;;;;;;;;;;;9.90;99.90;;;;;;5049291;28;19920;-69
2023/03/31 07:44:00;;;;;;;;;;;9.70;99.90;;;;;;5049729;28;20486;-68
2023/03/31 07:46:27;;;;;;;;;;;9.70;99.90;;;;;;5030582;28;20390;-69
2023/03/31 07:48:53;;;;;;;;;;;10.10;99.90;;;;;;5048351;28;19966;-69
2023/03/31 07:51:20;;;;;;;;;;;9.90;99.90;;;;;;5047511;28;19928;-70
2023/03/31 07:53:48;;;;;;;;;;;9.70;99.90;;;;;;5050039;28;20049;-68
2023/03/31 07:56:13;;;;;;;;;;;10.10;99.90;;;;;;5030540;28;19920;-68
2023/03/31 07:58:39;;;;;;;;;;;9.80;99.90;;;;;;5047945;28;20325;-69
2023/03/31 08:01:05;;;;;;;;;;;9.80;99.90;;;;;;5048366;28;20341;-69
2023/03/31 08:03:30;;;;;;;;;;;10.20;99.90;;;;;;5047971;28;20186;-67
2023/03/31 08:05:56;;;;;;;;;;;9.80;99.90;;;;;;5049188;28;19925;-68
2023/03/31 08:08:22;;;;;;;;;;;10.20;99.90;;;;;;5048860;28;19990;-68
2023/03/31 08:10:48;;;;;;;;;;;10.20;99.90;;;;;;5030746;28;20641;-68
2023/03/31 08:13:15;;;;;;;;;;;10.30;99.90;;;;;;5048457;28;19954;-69
2023/03/31 08:15:40;;;;;;;;;;;10.10;99.90;;;;;;5048280;28;20211;-68
2023/03/31 08:18:06;;;;;;;;;;;10.10;99.90;;;;;;5033814;28;19924;-68
2023/03/31 08:20:31;;;;;;;;;;;10.30;99.90;;;;;;5031372;28;20505;-68
2023/03/31 08:22:57;;;;;;;;;;;10.40;99.90;;;;;;5015277;28;19974;-68
2023/03/31 08:25:23;;;;;;;;;;;10.20;99.90;;;;;;5049453;28;19928;-68
2023/03/31 08:27:52;;;;;;;;;;;10.30;99.90;;;;;;5048804;28;20333;-67
2023/03/31 08:30:18;;;;;;;;;;;10.00;99.90;;;;;;5049081;28;20734;-70
2023/03/31 08:32:43;;;;;;;;;;;10.40;99.90;;;;;;5047981;28;20355;-69
2023/03/31 08:35:09;;;;;;;;;;;10.30;99.90;;;;;;5048351;28;19928;-67
2023/03/31 08:37:36;;;;;;;;;;;9.90;99.90;;;;;;5046826;28;19928;-69
2023/03/31 08:40:04;;;;;;;;;;;10.30;99.90;;;;;;5047594;28;20282;-70
2023/03/31 08:42:29;;;;;;;;;;;10.30;99.90;;;;;;5012075;28;20345;-69
2023/03/31 08:44:55;;;;;;;;;;;10.30;99.90;;;;;;5030660;28;20001;-69
2023/03/31 08:47:21;;;;;;;;;;;10.30;99.90;;;;;;5045226;28;19983;-69
2023/03/31 08:49:49;;;;;;;;;;;10.00;99.90;;;;;;5047900;28;20710;-69
2023/03/31 08:52:18;;;;;;;;;;;10.40;99.90;;;;;;5046504;28;19928;-69
2023/03/31 08:54:49;;;;;;;;;;;10.30;99.90;;;;;;5046393;28;20120;-69
2023/03/31 08:57:18;;;;;;;;;;;10.00;99.90;;;;;;5045983;28;19928;-69
2023/03/31 08:59:45;;;;;;;;;;;10.10;99.90;;;;;;5045933;28;20220;-69
2023/03/31 09:02:28;;;;;;;;;;;10.00;99.90;;;;;;5031494;28;20515;-69
2023/03/31 09:05:17;;;;;;;;;;;9.90;99.90;;;;;;5047130;28;20007;-70
2023/03/31 09:07:49;;;;;;;;;;;10.00;99.90;;;;;;5033168;28;19920;-68
2023/03/31 09:10:23;;;;;;;;;;;10.40;99.90;;;;;;5048208;28;20006;-69
2023/03/31 09:13:04;;;;;;;;;;;10.00;99.90;;;;;;5031555;28;19928;-69
2023/03/31 09:15:30;;;;;;;;;;;10.30;99.90;;;;;;5049380;28;19920;-70
2023/03/31 09:17:58;;;;;;;;;;;10.00;99.90;;;;;;5048476;28;20363;-69
2023/03/31 09:20:27;;;;;;;;;;;10.10;99.90;;;;;;5030630;28;20038;-69
2023/03/31 09:23:11;;;;;;;;;;;10.50;99.90;;;;;;5048996;28;20120;-69
2023/03/31 09:25:38;;;;;;;;;;;10.50;99.90;;;;;;5047519;28;19931;-69
2023/03/31 09:28:08;;;;;;;;;;;10.40;99.90;;;;;;5048168;28;20614;-69
2023/03/31 09:30:35;;;;;;;;;;;10.30;99.90;;;;;;5045233;28;19930;-69
2023/03/31 09:33:10;;;;;;;;;;;10.60;99.90;;;;;;5048144;28;19924;-70
2023/03/31 09:35:36;;;;;;;;;;;10.20;99.90;;;;;;5032181;28;19970;-69
2023/03/31 09:38:02;;;;;;;;;;;10.20;99.90;;;;;;5046334;28;19920;-70
2023/03/31 09:40:27;;;;;;;;;;;10.60;99.90;;;;;;5030791;28;19931;-70
2023/03/31 09:42:56;;;;;;;;;;;10.40;99.90;;;;;;5046866;28;20567;-69
2023/03/31 09:45:22;;;;;;;;;;;10.30;99.90;;;;;;5028403;28;19931;-70
2023/03/31 09:47:56;;;;;;;;;;;10.30;99.90;;;;;;5045393;28;19924;-70
2023/03/31 09:50:22;;;;;;;;;;;10.70;99.90;;;;;;5059524;28;19916;-69
2023/03/31 09:52:50;;;;;;;;;;;10.80;99.90;;;;;;5048013;28;19929;-69
2023/03/31 09:55:20;;;;;;;;;;;10.30;99.90;;;;;;5046411;28;20010;-70
2023/03/31 09:57:46;;;;;;;;;;;10.80;99.90;;;;;;5030068;28;20084;-70
2023/03/31 10:00:12;;;;;;;;;;;10.80;99.90;;;;;;5046423;28;19920;-70
2023/03/31 10:02:41;;;;;;;;;;;10.50;99.90;;;;;;5045981;28;20501;-70
2023/03/31 10:05:18;;;;;;;;;;;10.90;99.90;;;;;;5029201;28;20614;-68
2023/03/31 10:07:45;;;;;;;;;;;10.50;99.90;;;;;;5044238;28;19932;-69
2023/03/31 10:10:19;;;;;;;;;;;10.50;99.90;;;;;;5026662;28;20015;-69
2023/03/31 10:12:49;;;;;;;;;;;10.50;99.90;;;;;;5047773;28;19947;-70
2023/03/31 10:15:24;;;;;;;;;;;10.80;99.90;;;;;;5049078;28;20228;-68
2023/03/31 10:17:50;;;;;;;;;;;10.40;99.90;;;;;;5030640;28;20006;-68
2023/03/31 10:20:39;;;;;;;;;;;10.50;99.90;;;;;;5050022;28;19967;-69
2023/03/31 10:23:15;;;;;;;;;;;10.50;99.90;;;;;;5022183;28;20005;-69
2023/03/31 10:25:41;;;;;;;;;;;10.80;99.90;;;;;;5051098;28;19932;-68
2023/03/31 10:28:10;;;;;;;;;;;10.80;99.90;;;;;;5050264;28;19924;-69
2023/03/31 10:30:38;;;;;;;;;;;10.60;99.90;;;;;;5032805;28;19924;-68
2023/03/31 10:33:05;;;;;;;;;;;10.60;99.90;;;;;;5046218;28;20562;-69
2023/03/31 10:35:32;;;;;;;;;;;10.80;99.90;;;;;;5031840;28;19920;-69
2023/03/31 10:38:00;;;;;;;;;;;10.70;99.90;;;;;;5031669;28;19924;-68
2023/03/31 10:40:28;;;;;;;;;;;11.10;99.90;;;;;;5030897;28;20507;-68
2023/03/31 10:43:05;;;;;;;;;;;10.80;99.90;;;;;;5050819;28;20335;-68
2023/03/31 10:45:41;;;;;;;;;;;11.20;99.90;;;;;;5031362;28;20608;-68
2023/03/31 10:48:16;;;;;;;;;;;10.80;99.90;;;;;;5048797;28;19924;-69
2023/03/31 10:50:42;;;;;;;;;;;11.10;99.90;;;;;;5038767;28;19951;-69
2023/03/31 10:53:12;;;;;;;;;;;10.90;99.90;;;;;;5055346;28;19928;-68
2023/03/31 10:55:40;;;;;;;;;;;11.40;99.90;;;;;;5055064;28;19920;-67
2023/03/31 10:58:16;;;;;;;;;;;11.30;99.90;;;;;;5038979;28;19930;-69
2023/03/31 11:00:51;;;;;;;;;;;11.40;99.90;;;;;;5055548;28;20583;-68
2023/03/31 11:03:35;;;;;;;;;;;11.20;99.90;;;;;;5056012;28;20302;-68
2023/03/31 11:06:09;;;;;;;;;;;11.50;99.90;;;;;;5055744;28;19920;-68
2023/03/31 11:09:04;;;;;;;;;;;11.70;99.90;;;;;;5021909;28;19920;-68
2023/03/31 11:11:33;;;;;;;;;;;11.40;99.90;;;;;;5029158;28;19999;-69
2023/03/31 11:14:23;;;;;;;;;;;11.90;99.90;;;;;;5055352;28;19967;-68
2023/03/31 11:16:55;;;;;;;;;;;11.50;99.90;;;;;;5053691;28;20293;-68
2023/03/31 11:19:39;;;;;;;;;;;11.90;99.90;;;;;;5051733;28;20010;-69
2023/03/31 11:22:11;;;;;;;;;;;11.90;99.90;;;;;;5048864;28;19920;-68
2023/03/31 11:24:43;;;;;;;;;;;11.20;99.90;;;;;;5050922;28;20825;-68
2023/03/31 11:27:15;;;;;;;;;;;11.40;99.90;;;;;;5050174;28;20401;-69
2023/03/31 11:29:40;;;;;;;;;;;11.30;99.90;;;;;;5049895;28;20019;-69
2023/03/31 11:32:24;;;;;;;;;;;11.20;99.90;;;;;;5048657;28;20006;-68
2023/03/31 11:35:03;;;;;;;;;;;11.10;99.90;;;;;;5047619;28;19920;-69
2023/03/31 11:37:41;;;;;;;;;;;10.70;99.90;;;;;;5048669;28;19955;-69
2023/03/31 11:40:31;;;;;;;;;;;10.90;99.90;;;;;;5048959;28;20285;-69
2023/03/31 11:43:09;;;;;;;;;;;11.10;99.90;;;;;;5065082;28;19928;-69
2023/03/31 11:45:54;;;;;;;;;;;11.40;99.90;;;;;;5050171;28;19924;-69
2023/03/31 11:48:43;;;;;;;;;;;11.40;99.90;;;;;;5051753;28;20197;-69
2023/03/31 11:51:15;;;;;;;;;;;11.50;99.90;;;;;;5044753;28;19932;-69
2023/03/31 11:53:42;;;;;;;;;;;11.90;99.90;;;;;;5047711;28;20646;-70
2023/03/31 11:56:09;;;;;;;;;;;11.90;99.90;;;;;;5054410;28;20445;-70
2023/03/31 11:58:37;;;;;;;;;;;12.30;99.90;;;;;;5046619;28;20075;-70
2023/03/31 12:01:09;;;;;;;;;;;12.20;99.90;;;;;;5053761;28;19920;-70
2023/03/31 12:03:46;;;;;;;;;;;12.50;99.90;;;;;;5037029;28;19920;-70
2023/03/31 12:06:17;;;;;;;;;;;12.90;99.90;;;;;;5055399;28;19927;-69
2023/03/31 12:08:50;;;;;;;;;;;13.10;99.90;;;;;;5054798;28;20420;-67
2023/03/31 12:11:20;;;;;;;;;;;13.40;99.90;;;;;;5023562;28;19924;-69
2023/03/31 12:13:50;;;;;;;;;;;13.30;99.90;;;;;;5052794;28;20010;-67
2023/03/31 12:16:34;;;;;;;;;;;13.70;99.90;;;;;;5052653;28;19920;-67
2023/03/31 12:19:04;;;;;;;;;;;13.90;99.90;;;;;;5050066;28;19920;-68
2023/03/31 12:21:31;;;;;;;;;;;13.90;99.90;;;;;;5051978;28;20370;-67
2023/03/31 12:23:57;;;;;;;;;;;13.70;99.90;;;;;;5053678;28;19947;-69
2023/03/31 12:26:30;;;;;;;;;;;13.60;1.00;;;;;;5017765;28;19920;-67
2023/03/31 12:29:03;;;;;;;;;;;13.60;99.90;;;;;;5034880;28;20015;-68
2023/03/31 12:31:31;;;;;;;;;;;13.60;99.90;;;;;;5051755;28;20081;-68
2023/03/31 12:34:05;;;;;;;;;;;13.70;99.90;;;;;;5034891;28;20395;-70
2023/03/31 12:36:50;;;;;;;;;;;13.40;99.90;;;;;;5052398;28;19921;-68
2023/03/31 12:39:27;;;;;;;;;;;13.20;99.90;;;;;;5049857;28;19920;-69
2023/03/31 12:42:02;;;;;;;;;;;13.00;99.90;;;;;;5034046;28;19996;-69
2023/03/31 12:44:28;;;;;;;;;;;13.00;99.90;;;;;;5052118;28;19916;-69
2023/03/31 12:47:00;;;;;;;;;;;12.90;99.90;;;;;;5051131;28;19935;-68
2023/03/31 12:49:34;;;;;;;;;;;12.80;1.00;;;;;;5034672;28;19916;-68
2023/03/31 12:52:06;;;;;;;;;;;12.60;1.00;;;;;;5054080;28;19985;-69
2023/03/31 12:54:47;;;;;;;;;;;12.60;1.00;;;;;;5049946;28;19927;-69
2023/03/31 12:57:18;;;;;;;;;;;12.50;1.00;;;;;;5051901;28;20480;-68
2023/03/31 12:59:43;;;;;;;;;;;12.60;1.00;;;;;;5034870;28;19920;-67
2023/03/31 13:02:18;;;;;;;;;;;12.80;1.00;;;;;;5049670;28;19927;-68
2023/03/31 13:04:44;;;;;;;;;;;12.70;1.00;;;;;;5052558;28;20349;-67
2023/03/31 13:07:19;;;;;;;;;;;12.90;1.00;;;;;;5053509;28;20090;-69
2023/03/31 13:09:51;;;;;;;;;;;12.90;1.00;;;;;;5052679;28;19924;-68
2023/03/31 13:12:21;;;;;;;;;;;12.70;99.90;;;;;;5053033;28;19924;-68
2023/03/31 13:14:50;;;;;;;;;;;12.90;1.00;;;;;;5033434;28;20046;-69
2023/03/31 13:17:27;;;;;;;;;;;12.70;1.00;;;;;;5051136;28;19935;-68
2023/03/31 13:19:53;;;;;;;;;;;12.70;1.00;;;;;;5034978;28;20390;-67
2023/03/31 13:22:31;;;;;;;;;;;12.70;1.00;;;;;;5053062;28;19920;-67
2023/03/31 13:25:15;;;;;;;;;;;12.90;26.30;;;;;;5049365;28;19924;-68
2023/03/31 13:27:47;;;;;;;;;;;13.10;1.00;;;;;;5037700;28;19917;-69
2023/03/31 13:30:32;;;;;;;;;;;13.00;1.00;;;;;;5050592;28;20378;-67
2023/03/31 13:33:08;;;;;;;;;;;13.20;99.90;;;;;;5049809;28;19928;-67
2023/03/31 13:35:35;;;;;;;;;;;13.70;99.90;;;;;;5052356;28;20003;-68
2023/03/31 13:38:21;;;;;;;;;;;14.00;99.90;;;;;;5050888;28;19973;-67
2023/03/31 13:40:52;;;;;;;;;;;14.40;99.90;;;;;;5052320;28;19976;-68
2023/03/31 13:43:29;;;;;;;;;;;14.30;99.90;;;;;;5051811;28;19932;-67
2023/03/31 13:46:14;;;;;;;;;;;14.10;99.90;;;;;;5034325;28;19928;-68
2023/03/31 13:48:49;;;;;;;;;;;13.80;99.90;;;;;;5049133;28;20658;-68
2023/03/31 13:51:15;;;;;;;;;;;13.70;99.20;;;;;;5050394;28;20181;-67
2023/03/31 13:54:03;;;;;;;;;;;13.90;99.90;;;;;;5052754;28;20370;-68
2023/03/31 13:56:38;;;;;;;;;;;14.10;99.90;;;;;;5043860;28;19974;-69
2023/03/31 13:59:22;;;;;;;;;;;14.10;99.90;;;;;;5050370;28;19951;-68
2023/03/31 14:01:54;;;;;;;;;;;14.30;99.90;;;;;;5052532;28;19928;-68
2023/03/31 14:04:39;;;;;;;;;;;14.60;4.30;;;;;;5036380;28;19929;-69
2023/03/31 14:07:19;;;;;;;;;;;14.70;99.90;;;;;;5031636;28;19928;-69
2023/03/31 14:09:51;;;;;;;;;;;14.40;1.00;;;;;;5051732;28;20603;-68
2023/03/31 14:12:29;;;;;;;;;;;14.50;99.90;;;;;;5051637;28;20173;-70
2023/03/31 14:14:54;;;;;;;;;;;14.10;37.60;;;;;;5050429;28;19920;-69
2023/03/31 14:17:32;;;;;;;;;;;14.00;99.90;;;;;;5051321;28;19920;-69
2023/03/31 14:20:12;;;;;;;;;;;13.80;99.90;;;;;;5035001;28;20234;-70
2023/03/31 14:22:46;;;;;;;;;;;13.50;50.80;;;;;;5050018;28;20019;-69
2023/03/31 14:25:21;;;;;;;;;;;13.30;99.90;;;;;;5050093;28;20370;-69
2023/03/31 14:28:07;;;;;;;;;;;13.00;99.90;;;;;;5051614;28;19960;-68
2023/03/31 14:30:51;;;;;;;;;;;12.90;99.90;;;;;;5047654;28;19927;-68
2023/03/31 14:33:20;;;;;;;;;;;12.40;99.90;;;;;;5051728;28;19968;-68
2023/03/31 14:36:06;;;;;;;;;;;12.40;99.90;;;;;;5035627;28;20215;-67
2023/03/31 14:38:32;;;;;;;;;;;12.10;99.90;;;;;;5051222;28;20007;-66
2023/03/31 14:40:59;;;;;;;;;;;11.90;1.00;;;;;;5051236;28;19995;-68
2023/03/31 14:43:28;;;;;;;;;;;11.90;1.00;;;;;;5036656;28;19927;-68